Time;durP1;ratioP1;P1;durP2;ratioP2;P2;SDS_P1;SDS_P2;PMS_P1;PMS_P2;Temp;Humidity;BMP_temperature;BMP_pressure;BME280_temperature;BME280_humidity;BME280_pressure;Samples;Min_cycle;Max_cycle;Signal;HPM_P1;HPM_P2
2023/12/12 00:02:04;;;;;;;29.55;14.85;;;;;;;5.48;nan;100231.66;5057691;28;20035;-68
2023/12/12 00:04:29;;;;;;;29.65;14.57;;;;;;;5.41;nan;100214.34;5054206;28;20036;-70
2023/12/12 00:06:55;;;;;;;27.40;14.00;;;;;;;5.43;nan;100220.97;5056921;28;20073;-70
2023/12/12 00:09:24;;;;;;;29.77;14.07;;;;;;;5.44;nan;100216.56;5060081;28;20117;-72
2023/12/12 00:11:54;;;;;;;32.85;15.18;;;;;;;5.19;nan;100205.81;5057730;28;20068;-72
2023/12/12 00:14:20;;;;;;;31.85;14.63;;;;;;;5.37;nan;100211.31;5059313;28;20487;-70
2023/12/12 00:16:45;;;;;;;30.45;14.30;;;;;;;5.41;nan;100214.34;5056742;28;20032;-68
2023/12/12 00:19:11;;;;;;;24.50;13.07;;;;;;;5.31;nan;100202.44;5059909;28;20024;-69
2023/12/12 00:21:36;;;;;;;28.23;14.27;;;;;;;5.42;nan;100215.97;5056477;28;20567;-70
2023/12/12 00:24:02;;;;;;;30.08;14.15;;;;;;;5.35;nan;100202.88;5062078;28;20406;-70
2023/12/12 00:26:29;;;;;;;25.73;13.68;;;;;;;5.31;nan;100199.03;5063393;28;20028;-68
2023/12/12 00:28:54;;;;;;;32.65;14.55;;;;;;;5.29;nan;100204.47;5061623;28;20021;-69
2023/12/12 00:31:20;;;;;;;26.75;14.15;;;;;;;5.21;nan;100194.19;5061154;28;20016;-67
2023/12/12 00:33:48;;;;;;;26.83;13.82;;;;;;;5.32;nan;100217.13;5064586;28;20027;-66
2023/12/12 00:36:14;;;;;;;30.42;14.68;;;;;;;5.33;nan;100212.69;5068013;28;20041;-70
2023/12/12 00:38:39;;;;;;;34.63;14.82;;;;;;;5.28;nan;100210.66;5068763;28;20035;-66
2023/12/12 00:41:05;;;;;;;26.85;13.35;;;;;;;5.33;nan;100212.69;5070920;28;20055;-69
2023/12/12 00:43:30;;;;;;;28.27;13.85;;;;;;;5.31;nan;100210.28;5076837;28;20040;-69
2023/12/12 00:45:56;;;;;;;29.98;12.90;;;;;;;5.33;nan;100208.28;5071613;28;20034;-68
2023/12/12 00:48:22;;;;;;;26.05;13.48;;;;;;;5.34;nan;100219.56;5062977;28;20033;-68
2023/12/12 00:50:48;;;;;;;25.30;12.68;;;;;;;5.12;nan;100187.50;5061427;28;20059;-71
2023/12/12 00:53:14;;;;;;;26.75;12.73;;;;;;;5.19;nan;100198.78;5060693;28;20079;-71
2023/12/12 00:55:39;;;;;;;25.77;12.80;;;;;;;5.31;nan;100214.69;5061855;28;20390;-69
2023/12/12 00:58:05;;;;;;;27.20;13.07;;;;;;;5.28;nan;100218.50;5059301;28;20029;-70
2023/12/12 01:00:31;;;;;;;26.60;12.27;;;;;;;5.33;nan;100228.38;5061113;28;20972;-69
2023/12/12 01:02:56;;;;;;;22.85;12.23;;;;;;;5.31;nan;100223.31;5060299;28;20021;-69
2023/12/12 01:05:22;;;;;;;24.38;12.10;;;;;;;5.27;nan;100219.50;5061729;28;20016;-70
2023/12/12 01:07:47;;;;;;;22.85;12.38;;;;;;;5.05;nan;100190.09;5061278;28;20031;-70
2023/12/12 01:10:13;;;;;;;24.85;12.48;;;;;;;5.30;nan;100226.94;5043368;28;20056;-70
2023/12/12 01:12:38;;;;;;;29.50;13.73;;;;;;;5.29;nan;100230.56;5044141;28;20040;-68
2023/12/12 01:15:04;;;;;;;29.02;12.88;;;;;;;5.21;nan;100215.06;5062708;28;20387;-70
2023/12/12 01:17:30;;;;;;;27.30;12.60;;;;;;;5.30;nan;100236.59;5061247;28;20042;-73
2023/12/12 01:19:55;;;;;;;24.40;13.02;;;;;;;5.28;nan;100242.00;5059795;28;20017;-70
2023/12/12 01:22:21;;;;;;;23.60;12.60;;;;;;;5.25;nan;100241.59;5062701;28;20410;-69
2023/12/12 01:24:49;;;;;;;30.77;13.63;;;;;;;5.30;nan;100260.09;5059833;28;20108;-69
2023/12/12 01:27:15;;;;;;;25.92;12.70;;;;;;;5.30;nan;100268.72;5061391;28;20040;-70
2023/12/12 01:29:40;;;;;;;25.20;13.00;;;;;;;5.25;nan;100268.50;5062590;28;20037;-70
2023/12/12 01:32:06;;;;;;;26.17;12.48;;;;;;;5.22;nan;100266.28;5061615;28;20032;-70
2023/12/12 01:34:31;;;;;;;26.90;13.07;;;;;;;5.27;nan;100279.56;5061691;28;20040;-68
2023/12/12 01:36:57;;;;;;;25.77;13.50;;;;;;;5.21;nan;100271.69;5064766;28;20099;-69
2023/12/12 01:39:22;;;;;;;25.92;13.60;;;;;;;5.23;nan;100280.94;5065089;28;20825;-69
2023/12/12 01:41:49;;;;;;;28.15;12.43;;;;;;;5.25;nan;100283.38;5066907;28;20036;-69
2023/12/12 01:44:15;;;;;;;26.23;12.68;;;;;;;5.20;nan;100277.91;5061868;28;20081;-69
2023/12/12 01:46:42;;;;;;;29.25;14.25;;;;;;;5.19;nan;100281.50;5059616;28;20107;-69
2023/12/12 01:49:08;;;;;;;27.67;13.85;;;;;;;5.19;nan;100279.69;5059970;28;20047;-69
2023/12/12 01:51:35;;;;;;;28.02;13.88;;;;;;;5.14;nan;100268.22;5059158;28;20056;-69
2023/12/12 01:54:02;;;;;;;27.40;14.07;;;;;;;5.12;nan;100255.38;5060502;28;20033;-69
2023/12/12 01:56:29;;;;;;;27.92;14.45;;;;;;;5.17;nan;100260.84;5057741;28;20021;-69
2023/12/12 01:58:56;;;;;;;26.48;13.50;;;;;;;5.18;nan;100264.25;5056872;28;20028;-69
2023/12/12 02:01:22;;;;;;;31.38;14.85;;;;;;;5.10;nan;100249.56;5065770;28;20033;-68
2023/12/12 02:03:49;;;;;;;27.52;14.57;;;;;;;5.21;nan;100259.44;5047102;28;20025;-69
2023/12/12 02:06:22;;;;;;;29.67;14.43;;;;;;;5.09;nan;100230.47;5059602;28;20021;-68
2023/12/12 02:08:49;;;;;;;25.83;13.55;;;;;;;5.20;nan;100208.25;5058431;28;20028;-69
2023/12/12 02:11:16;;;;;;;25.58;13.75;;;;;;;5.16;nan;100178.28;5058253;28;20027;-70
2023/12/12 02:13:41;;;;;;;27.25;13.93;;;;;;;5.11;nan;100184.09;5059877;28;20132;-70
2023/12/12 02:16:17;;;;;;;;;;;;;;;;;;;;;
2023/12/12 02:18:43;;;;;;;31.77;13.88;;;;;;;4.99;nan;100187.47;5052142;28;20040;-68
2023/12/12 02:21:08;;;;;;;29.90;13.57;;;;;;;4.95;nan;100181.00;5046151;28;20016;-67
2023/12/12 02:23:33;;;;;;;27.98;14.00;;;;;;;4.96;nan;100174.81;5048051;28;20031;-68
2023/12/12 02:25:59;;;;;;;28.10;13.77;;;;;;;4.98;nan;100183.22;5061971;28;20743;-68
2023/12/12 02:28:25;;;;;;;29.50;13.32;;;;;;;4.90;nan;100179.78;5048300;28;20471;-70
2023/12/12 02:30:51;;;;;;;28.50;13.52;;;;;;;4.89;nan;100175.56;5060350;28;20052;-70
2023/12/12 02:33:16;;;;;;;27.55;13.55;;;;;;;4.92;nan;100179.59;5061217;28;20123;-68
2023/12/12 02:35:42;;;;;;;46.67;15.30;;;;;;;4.86;nan;100177.75;5058714;28;20024;-69
2023/12/12 02:38:07;;;;;;;27.17;12.65;;;;;;;4.94;nan;100192.47;5057213;28;20028;-68
2023/12/12 02:40:33;;;;;;;31.42;14.23;;;;;;;4.82;nan;100185.16;5040954;28;20411;-71
2023/12/12 02:42:59;;;;;;;27.75;13.85;;;;;;;4.93;nan;100209.88;5061348;28;20036;-68
2023/12/12 02:45:24;;;;;;;32.97;15.00;;;;;;;4.89;nan;100212.09;5059541;28;20112;-69
2023/12/12 02:47:50;;;;;;;29.23;14.13;;;;;;;4.94;nan;100216.75;5060171;28;20116;-68
2023/12/12 02:50:16;;;;;;;29.92;14.77;;;;;;;4.88;nan;100205.28;5061889;28;20028;-63
2023/12/12 02:52:42;;;;;;;26.85;13.88;;;;;;;4.93;nan;100215.09;5059576;28;20048;-66
2023/12/12 02:55:07;;;;;;;26.70;13.52;;;;;;;4.93;nan;100214.31;5060762;28;20049;-64
2023/12/12 02:57:33;;;;;;;27.48;13.55;;;;;;;4.86;nan;100196.00;5062272;28;20040;-65
2023/12/12 02:59:59;;;;;;;28.42;14.18;;;;;;;4.95;nan;100215.72;5060216;28;20159;-64
2023/12/12 03:02:24;;;;;;;29.95;13.50;;;;;;;4.90;nan;100218.09;5062862;28;20059;-63
2023/12/12 03:04:49;;;;;;;33.33;14.43;;;;;;;4.96;nan;100222.56;5061034;28;20164;-64
2023/12/12 03:07:15;;;;;;;28.42;13.65;;;;;;;4.73;nan;100182.91;5058606;28;20050;-64
2023/12/12 03:09:40;;;;;;;30.83;15.02;;;;;;;4.95;nan;100223.56;5055595;28;20478;-65
2023/12/12 03:12:06;;;;;;;26.92;14.43;;;;;;;4.96;nan;100234.81;5058292;28;20031;-64
2023/12/12 03:14:35;;;;;;;34.35;15.75;;;;;;;4.96;nan;100225.19;5058823;28;20056;-64
2023/12/12 03:17:00;;;;;;;33.95;15.20;;;;;;;5.01;nan;100237.66;5049380;28;20036;-66
2023/12/12 03:19:26;;;;;;;29.80;14.63;;;;;;;4.94;nan;100236.81;5061601;28;20048;-65
2023/12/12 03:21:51;;;;;;;31.50;15.43;;;;;;;4.97;nan;100236.41;5058148;28;20052;-67
2023/12/12 03:24:17;;;;;;;32.22;15.10;;;;;;;4.95;nan;100225.38;5042076;28;20028;-64
2023/12/12 03:26:43;;;;;;;30.85;15.32;;;;;;;5.06;nan;100243.91;5060383;28;20369;-63
2023/12/12 03:29:09;;;;;;;29.48;14.88;;;;;;;5.05;nan;100231.03;5064356;28;20032;-66
2023/12/12 03:31:34;;;;;;;33.33;14.77;;;;;;;5.07;nan;100239.47;5055524;28;20066;-65
2023/12/12 03:34:00;;;;;;;34.15;14.68;;;;;;;5.05;nan;100226.66;5059513;28;20129;-64
2023/12/12 03:36:25;;;;;;;28.55;14.02;;;;;;;5.09;nan;100232.28;5058364;28;20522;-64
2023/12/12 03:38:51;;;;;;;26.48;14.25;;;;;;;4.98;nan;100212.75;5065298;28;20031;-69
2023/12/12 03:41:16;;;;;;;27.92;14.13;;;;;;;5.11;nan;100230.28;5070237;28;20035;-69
2023/12/12 03:43:42;;;;;;;29.38;14.90;;;;;;;5.03;nan;100215.59;5072900;28;20092;-68
2023/12/12 03:46:13;;;;;;;28.55;13.75;;;;;;;5.06;nan;100215.19;5068457;28;20032;-69
2023/12/12 03:48:39;;;;;;;27.83;13.80;;;;;;;5.09;nan;100214.00;5075827;28;20028;-70
2023/12/12 03:51:08;;;;;;;29.48;14.90;;;;;;;5.09;nan;100219.22;5058734;28;20081;-69
2023/12/12 03:53:34;;;;;;;31.65;14.48;;;;;;;5.07;nan;100210.78;5060451;28;20074;-69
2023/12/12 03:55:59;;;;;;;29.83;14.02;;;;;;;5.11;nan;100212.81;5057390;28;20123;-68
2023/12/12 03:58:25;;;;;;;31.92;15.00;;;;;;;5.01;nan;100193.28;5049528;28;20024;-64
2023/12/12 04:00:50;;;;;;;36.53;16.33;;;;;;;4.85;nan;100171.72;5060458;28;20025;-64
2023/12/12 04:03:15;;;;;;;30.35;15.27;;;;;;;4.70;nan;100144.97;5059772;28;20032;-63
2023/12/12 04:05:42;;;;;;;33.13;14.20;;;;;;;5.14;nan;100216.84;5049360;28;20070;-64
2023/12/12 04:08:08;;;;;;;29.85;15.60;;;;;;;5.09;nan;100219.22;5062704;28;20029;-64
2023/12/12 04:10:33;;;;;;;31.30;14.73;;;;;;;5.06;nan;100219.63;5060635;28;20036;-65
2023/12/12 04:12:59;;;;;;;29.77;15.50;;;;;;;5.15;nan;100236.72;5063569;28;20024;-65
2023/12/12 04:15:24;;;;;;;31.02;15.52;;;;;;;5.07;nan;100226.44;5061837;28;20028;-66
2023/12/12 04:17:50;;;;;;;35.95;15.10;;;;;;;5.03;nan;100214.78;5045721;28;20017;-64
2023/12/12 04:20:18;;;;;;;29.67;15.43;;;;;;;5.01;nan;100222.00;5039474;28;20037;-65
2023/12/12 04:22:44;;;;;;;29.75;15.73;;;;;;;5.13;nan;100241.34;5048863;28;20372;-65
2023/12/12 04:25:13;;;;;;;39.45;16.17;;;;;;;5.14;nan;100247.34;5061046;28;20031;-63
2023/12/12 04:27:38;;;;;;;33.95;15.75;;;;;;;5.12;nan;100242.31;5062821;28;20103;-65
2023/12/12 04:30:05;;;;;;;31.10;15.27;;;;;;;5.04;nan;100230.22;5059543;28;20091;-64
2023/12/12 04:32:31;;;;;;;35.47;15.98;;;;;;;5.06;nan;100241.28;5061487;28;20114;-64
2023/12/12 04:34:57;;;;;;;33.72;15.95;;;;;;;5.05;nan;100241.47;5049859;28;20682;-64
2023/12/12 04:37:23;;;;;;;31.92;16.58;;;;;;;5.03;nan;100246.09;5042923;28;20033;-63
2023/12/12 04:39:48;;;;;;;38.72;16.70;;;;;;;5.10;nan;100257.38;5062767;28;20086;-64
2023/12/12 04:42:13;;;;;;;35.17;16.45;;;;;;;5.12;nan;100265.81;5062954;28;20193;-64
2023/12/12 04:44:42;;;;;;;32.65;15.35;;;;;;;5.11;nan;100270.22;5057491;28;20029;-65
2023/12/12 04:47:28;;;;;;;34.15;15.80;;;;;;;5.15;nan;100262.84;5057381;28;20025;-63
2023/12/12 04:49:55;;;;;;;32.40;15.05;;;;;;;5.15;nan;100270.66;5057830;28;20398;-64
2023/12/12 04:52:21;;;;;;;32.22;15.57;;;;;;;5.13;nan;100267.44;5018556;28;1166938;-64
2023/12/12 04:54:46;;;;;;;28.45;14.68;;;;;;;5.00;nan;100244.66;5060728;28;20032;-64
2023/12/12 04:57:12;;;;;;;29.70;15.18;;;;;;;5.09;nan;100250.53;5059148;28;20049;-64
2023/12/12 04:59:37;;;;;;;35.40;14.75;;;;;;;5.15;nan;100265.44;5058400;28;20021;-64
2023/12/12 05:02:03;;;;;;;29.92;15.10;;;;;;;5.15;nan;100265.44;5061982;28;20078;-64
2023/12/12 05:04:28;;;;;;;28.05;14.40;;;;;;;5.17;nan;100271.28;5061922;28;20106;-63
2023/12/12 05:06:57;;;;;;;33.00;14.25;;;;;;;5.07;nan;100255.94;5061701;28;20031;-65
2023/12/12 05:09:22;;;;;;;27.48;13.88;;;;;;;5.19;nan;100278.91;5059255;28;20054;-64
2023/12/12 05:11:48;;;;;;;32.38;15.10;;;;;;;5.15;nan;100269.84;5061662;28;20422;-65
2023/12/12 05:14:14;;;;;;;33.00;14.90;;;;;;;5.06;nan;100261.38;5050069;28;20043;-65
2023/12/12 05:16:40;;;;;;;30.88;14.40;;;;;;;5.20;nan;100283.16;5062836;28;20021;-68
2023/12/12 05:19:05;;;;;;;28.70;14.55;;;;;;;5.16;nan;100277.47;5060662;28;20036;-64
2023/12/12 05:21:40;;;;;;;31.67;13.95;;;;;;;5.20;nan;100283.94;5062427;28;20127;-67
2023/12/12 05:24:06;;;;;;;28.85;13.50;;;;;;;5.14;nan;100274.25;5061944;28;20032;-70
2023/12/12 05:26:32;;;;;;;27.30;13.82;;;;;;;5.19;nan;100287.53;5061771;28;20094;-69
2023/12/12 05:28:57;;;;;;;32.88;14.60;;;;;;;5.21;nan;100284.75;5059616;28;20486;-68
2023/12/12 05:31:24;;;;;;;29.60;14.30;;;;;;;5.17;nan;100281.72;5055363;28;20055;-69
2023/12/12 05:33:49;;;;;;;29.83;13.95;;;;;;;5.13;nan;100272.66;5042607;28;20516;-68
2023/12/12 05:36:15;;;;;;;23.83;12.80;;;;;;;5.15;nan;100286.31;5065415;28;20032;-68
2023/12/12 05:38:40;;;;;;;27.83;13.88;;;;;;;5.13;nan;100297.97;5062782;28;20049;-69
2023/12/12 05:41:06;;;;;;;26.23;13.45;;;;;;;5.16;nan;100298.38;5058673;28;20037;-69
2023/12/12 05:43:31;;;;;;;25.25;14.07;;;;;;;5.10;nan;100299.94;5060899;28;20024;-69
2023/12/12 05:45:57;;;;;;;32.60;14.98;;;;;;;5.16;nan;100313.22;5039373;28;20414;-69
2023/12/12 05:48:22;;;;;;;29.00;14.00;;;;;;;5.09;nan;100324.41;5061980;28;20267;-70
2023/12/12 05:50:48;;;;;;;30.77;14.27;;;;;;;5.13;nan;100327.47;5064221;28;20024;-70
2023/12/12 05:53:14;;;;;;;32.65;14.38;;;;;;;5.18;nan;100334.72;5062634;28;20060;-69
2023/12/12 05:55:39;;;;;;;27.73;13.82;;;;;;;5.08;nan;100320.22;5057587;28;20055;-70
2023/12/12 05:58:04;;;;;;;31.17;14.38;;;;;;;5.20;nan;100336.16;5059455;28;20064;-70
2023/12/12 06:00:30;;;;;;;28.58;14.52;;;;;;;5.15;nan;100320.25;5062952;28;20471;-70
2023/12/12 06:02:55;;;;;;;28.98;14.73;;;;;;;5.13;nan;100327.47;5063345;28;20029;-70
2023/12/12 06:05:21;;;;;;;29.42;14.50;;;;;;;5.03;nan;100304.31;5059534;28;20056;-71
2023/12/12 06:07:46;;;;;;;27.83;14.07;;;;;;;5.21;nan;100329.91;5060875;28;20452;-71
2023/12/12 06:10:15;;;;;;;32.85;16.13;;;;;;;5.24;nan;100334.78;5065527;28;20111;-71
2023/12/12 06:12:40;;;;;;;34.27;16.43;;;;;;;5.21;nan;100329.91;5061084;28;20056;-69
2023/12/12 06:15:09;;;;;;;40.13;16.90;;;;;;;5.24;nan;100342.63;5042129;28;20924;-69
2023/12/12 06:17:35;;;;;;;37.07;16.67;;;;;;;5.22;nan;100339.38;5066202;28;20051;-70
2023/12/12 06:20:01;;;;;;;39.10;17.67;;;;;;;5.17;nan;100320.03;5058683;28;20118;-72
2023/12/12 06:22:26;;;;;;;33.75;16.52;;;;;;;5.20;nan;100328.31;5063181;28;20033;-70
2023/12/12 06:24:51;;;;;;;36.53;16.98;;;;;;;5.17;nan;100320.03;5063855;28;20074;-70
2023/12/12 06:27:17;;;;;;;37.60;17.27;;;;;;;5.25;nan;100333.75;5061607;28;20029;-70
2023/12/12 06:29:43;;;;;;;35.95;17.00;;;;;;;5.26;nan;100334.56;5056103;28;20053;-69
2023/12/12 06:32:08;;;;;;;39.15;17.77;;;;;;;5.30;nan;100335.81;5059438;28;20041;-70
2023/12/12 06:34:34;;;;;;;48.53;19.45;;;;;;;5.28;nan;100322.13;5063885;28;20024;-68
2023/12/12 06:36:59;;;;;;;38.47;19.23;;;;;;;5.33;nan;100330.19;5062300;28;20024;-70
2023/12/12 06:39:25;;;;;;;41.45;18.48;;;;;;;5.33;nan;100332.81;5075736;28;20029;-68
2023/12/12 06:41:50;;;;;;;44.03;18.52;;;;;;;5.32;nan;100331.22;5075524;28;20044;-70
2023/12/12 06:44:16;;;;;;;38.42;19.15;;;;;;;5.31;nan;100327.75;5061771;28;20075;-69
2023/12/12 06:46:41;;;;;;;40.28;19.23;;;;;;;5.32;nan;100333.81;5074892;28;20025;-69
2023/12/12 06:49:07;;;;;;;38.53;19.80;;;;;;;5.33;nan;100344.03;5074683;28;20486;-70
2023/12/12 06:51:32;;;;;;;42.17;20.60;;;;;;;5.32;nan;100342.44;5060673;28;20067;-70
2023/12/12 06:53:58;;;;;;;36.40;18.30;;;;;;;5.27;nan;100347.44;5061648;28;20598;-71
2023/12/12 06:56:28;;;;;;;41.22;18.63;;;;;;;5.32;nan;100350.28;5060781;28;20029;-70
2023/12/12 06:58:53;;;;;;;;;;;;;;;5.34;nan;100352.72;5060788;28;20103;-73
2023/12/12 07:01:18;;;;;;;37.63;18.67;;;;;;;5.23;nan;100340.97;5058439;28;19920;-74
2023/12/12 07:03:44;;;;;;;39.78;19.50;;;;;;;5.26;nan;100345.00;5061937;28;20386;-74
2023/12/12 07:06:09;;;;;;;39.15;18.83;;;;;;;5.23;nan;100348.00;5048167;28;20035;-75
2023/12/12 07:08:35;;;;;;;39.63;19.13;;;;;;;5.30;nan;100361.91;5044510;28;20047;-73
2023/12/12 07:11:01;;;;;;;36.97;18.33;;;;;;;5.26;nan;100365.91;5060102;28;20027;-74
2023/12/12 07:13:27;;;;;;;39.92;19.23;;;;;;;5.22;nan;100368.09;5059375;28;20039;-75
2023/12/12 07:15:52;;;;;;;39.90;20.67;;;;;;;5.25;nan;100362.50;5059299;28;20078;-74
2023/12/12 07:18:18;;;;;;;37.70;18.65;;;;;;;5.27;nan;100377.97;5065847;28;20037;-75
2023/12/12 07:20:44;;;;;;;38.45;19.63;;;;;;;5.22;nan;100370.72;5059780;28;20027;-74
2023/12/12 07:23:09;;;;;;;41.33;20.98;;;;;;;5.31;nan;100389.63;5060969;28;20024;-73
2023/12/12 07:25:35;;;;;;;36.38;18.88;;;;;;;5.19;nan;100365.84;5060455;28;20038;-74
2023/12/12 07:28:00;;;;;;;38.00;18.95;;;;;;;5.26;nan;100389.41;5063370;28;20478;-73
2023/12/12 07:30:29;;;;;;;37.10;19.73;;;;;;;5.16;nan;100374.06;5043018;28;20435;-73
2023/12/12 07:32:58;;;;;;;41.75;19.23;;;;;;;5.33;nan;100403.31;5041387;28;20059;-74
2023/12/12 07:35:24;;;;;;;37.47;19.52;;;;;;;5.29;nan;100405.50;5061281;28;20043;-73
2023/12/12 07:37:49;;;;;;;39.95;19.08;;;;;;;5.31;nan;100407.91;5062795;28;20058;-73
2023/12/12 07:40:15;;;;;;;33.65;18.15;;;;;;;5.36;nan;100408.13;5059259;28;20060;-73
2023/12/12 07:42:40;;;;;;;35.47;19.23;;;;;;;5.35;nan;100416.97;5060971;28;20040;-74
2023/12/12 07:45:07;;;;;;;41.20;20.60;;;;;;;5.38;nan;100421.81;5063676;28;20029;-73
2023/12/12 07:47:33;;;;;;;38.33;19.50;;;;;;;5.37;nan;100415.00;5059653;28;20041;-76
2023/12/12 07:49:59;;;;;;;39.20;19.23;;;;;;;5.48;nan;100431.91;5043623;28;20051;-74
2023/12/12 07:52:26;;;;;;;40.88;18.70;;;;;;;5.61;nan;100450.31;5049310;28;20048;-76
2023/12/12 07:54:51;;;;;;;39.75;18.80;;;;;;;5.66;nan;100458.38;5046949;28;20020;-74
2023/12/12 07:57:17;;;;;;;39.42;18.83;;;;;;;5.72;nan;100462.03;5062167;28;20040;-74
2023/12/12 07:59:42;;;;;;;40.83;18.08;;;;;;;5.67;nan;100439.09;5046840;28;20115;-78
2023/12/12 08:02:08;;;;;;;36.13;18.42;;;;;;;5.83;nan;100450.25;5038945;28;20055;-73
2023/12/12 08:04:33;;;;;;;33.40;17.63;;;;;;;5.87;nan;100457.50;5058892;28;20424;-75
2023/12/12 08:06:59;;;;;;;38.28;18.80;;;;;;;5.85;nan;100441.22;5061882;28;20441;-73
2023/12/12 08:09:25;;;;;;;38.70;19.15;;;;;;;5.94;nan;100442.69;5061005;28;20017;-72
2023/12/12 08:11:53;;;;;;;33.88;18.65;;;;;;;6.01;nan;100454.97;5058357;28;20060;-69
2023/12/12 08:14:21;;;;;;;38.45;19.10;;;;;;;6.03;nan;100461.63;5046974;28;20470;-69
2023/12/12 08:16:51;;;;;;;44.15;22.60;;;;;;;6.05;nan;100462.25;5041206;28;20029;-70
2023/12/12 08:19:23;;;;;;;46.28;22.63;;;;;;;6.07;nan;100455.03;5029063;28;20029;-69
2023/12/12 08:21:55;;;;;;;39.35;19.00;;;;;;;6.11;nan;100460.69;5046788;28;20024;-62
2023/12/12 08:24:24;;;;;;;40.83;20.67;;;;;;;6.13;nan;100456.03;5039760;28;20036;-63
2023/12/12 08:26:52;;;;;;;41.22;20.70;;;;;;;6.17;nan;100462.50;5062056;28;20039;-69
2023/12/12 08:29:17;;;;;;;34.67;18.90;;;;;;;6.23;nan;100460.94;5047341;28;20039;-72
2023/12/12 08:31:43;;;;;;;31.17;17.25;;;;;;;6.15;nan;100439.19;5062572;28;20045;-73
2023/12/12 08:34:09;;;;;;;33.88;17.73;;;;;;;6.30;nan;100444.28;5058474;28;20107;-69
2023/12/12 08:36:35;;;;;;;34.40;17.48;;;;;;;6.24;nan;100420.72;5028766;28;20028;-73
2023/12/12 08:39:01;;;;;;;32.60;17.40;;;;;;;6.36;nan;100437.44;5060588;28;20081;-72
2023/12/12 08:41:28;;;;;;;32.90;17.83;;;;;;;6.43;nan;100443.50;5060673;28;20025;-72
2023/12/12 08:43:55;;;;;;;37.90;19.05;;;;;;;6.44;nan;100420.75;5067979;28;20116;-72
2023/12/12 08:46:26;;;;;;;32.88;17.88;;;;;;;6.43;nan;100414.72;5052830;28;20020;-72
2023/12/12 08:48:56;;;;;;;32.38;17.63;;;;;;;6.52;nan;100424.03;5063236;28;20020;-72
2023/12/12 08:51:22;;;;;;;33.30;17.58;;;;;;;6.53;nan;100423.00;5062853;28;20056;-72
2023/12/12 08:53:49;;;;;;;33.50;17.52;;;;;;;6.51;nan;100400.66;5062244;28;20032;-73
2023/12/12 08:56:16;;;;;;;30.17;16.85;;;;;;;6.66;nan;100422.25;5062924;28;20068;-73
2023/12/12 08:58:43;;;;;;;33.10;17.00;;;;;;;6.52;nan;100395.25;5044605;28;20044;-72
2023/12/12 09:01:08;;;;;;;34.38;18.55;;;;;;;6.74;nan;100421.25;5044557;28;20083;-72
2023/12/12 09:03:34;;;;;;;37.03;17.58;;;;;;;6.79;nan;100430.09;5060951;28;20044;-73
2023/12/12 09:06:00;;;;;;;36.47;17.40;;;;;;;6.81;nan;100425.47;5058783;28;20020;-72
2023/12/12 09:08:26;;;;;;;31.45;18.13;;;;;;;6.88;nan;100430.72;5059431;28;20482;-72
2023/12/12 09:10:52;;;;;;;35.40;19.10;;;;;;;6.95;nan;100434.16;5060181;28;20362;-72
2023/12/12 09:13:17;;;;;;;35.95;18.35;;;;;;;6.97;nan;100432.16;5063807;28;20025;-72
2023/12/12 09:15:43;;;;;;;36.40;18.67;;;;;;;7.07;nan;100439.63;5059591;28;20483;-72
2023/12/12 09:18:09;;;;;;;35.83;18.75;;;;;;;7.11;nan;100432.97;5062442;28;20062;-72
2023/12/12 09:20:35;;;;;;;35.65;18.85;;;;;;;7.17;nan;100434.78;5050014;28;20398;-72
2023/12/12 09:23:00;;;;;;;35.15;18.50;;;;;;;7.12;nan;100416.25;5064208;28;20017;-72
2023/12/12 09:25:26;;;;;;;32.88;17.90;;;;;;;7.28;nan;100433.38;5062465;28;20040;-72
2023/12/12 09:27:51;;;;;;;32.33;17.88;;;;;;;7.30;nan;100420.06;5063721;28;20063;-72
2023/12/12 09:30:17;;;;;;;32.55;17.40;;;;;;;7.26;nan;100401.34;5049338;28;20089;-73
2023/12/12 09:32:42;;;;;;;38.55;20.75;;;;;;;7.38;nan;100412.81;5063294;28;20101;-74
2023/12/12 09:35:09;;;;;;;35.40;20.40;;;;;;;7.43;nan;100418.25;5059251;28;20029;-73
2023/12/12 09:37:34;;;;;;;35.75;19.67;;;;;;;7.39;nan;100406.53;5065021;28;20012;-73
2023/12/12 09:40:02;;;;;;;31.65;18.25;;;;;;;7.45;nan;100410.19;5067082;28;20025;-74
2023/12/12 09:42:31;;;;;;;35.97;17.88;;;;;;;7.50;nan;100406.97;5065823;28;20036;-72
2023/12/12 09:44:59;;;;;;;34.25;17.65;;;;;;;7.56;nan;100403.50;5084582;28;20025;-73
2023/12/12 09:47:27;;;;;;;34.45;18.63;;;;;;;7.56;nan;100393.03;5081659;28;20032;-73
2023/12/12 09:49:55;;;;;;;33.53;17.92;;;;;;;7.62;nan;100384.34;5078625;28;20024;-72
2023/12/12 09:52:21;;;;;;;31.35;17.48;;;;;;;7.70;nan;100383.31;5061791;28;20045;-73
2023/12/12 09:54:47;;;;;;;32.90;18.08;;;;;;;7.81;nan;100382.69;5059989;28;20017;-74
2023/12/12 09:57:16;;;;;;;32.90;18.00;;;;;;;7.91;nan;100384.88;5061113;28;20024;-74
2023/12/12 09:59:42;;;;;;;32.90;17.48;;;;;;;8.04;nan;100384.81;5060161;28;20029;-73
2023/12/12 10:02:13;;;;;;;31.60;17.58;;;;;;;8.12;nan;100381.97;5061717;28;20029;-73
2023/12/12 10:04:39;;;;;;;29.42;16.10;;;;;;;8.21;nan;100382.50;5060781;28;20390;-74
2023/12/12 10:07:07;;;;;;;27.88;15.07;;;;;;;8.28;nan;100386.72;5059832;28;20452;-73
2023/12/12 10:09:33;;;;;;;30.58;16.35;;;;;;;8.30;nan;100378.63;5041491;28;20104;-73
2023/12/12 10:11:59;;;;;;;26.50;15.90;;;;;;;8.36;nan;100367.31;5060536;28;20128;-74
2023/12/12 10:14:40;;;;;;;28.00;14.90;;;;;;;8.50;nan;100378.56;5064122;28;20032;-74
2023/12/12 10:17:10;;;;;;;27.52;15.10;;;;;;;8.48;nan;100365.66;5061660;28;20122;-73
2023/12/12 10:19:37;;;;;;;28.58;14.10;;;;;;;8.63;nan;100370.59;5062354;28;20048;-73
2023/12/12 10:22:09;;;;;;;26.42;13.75;;;;;;;8.62;nan;100355.03;5059614;28;20039;-74
2023/12/12 10:24:36;;;;;;;25.25;13.70;;;;;;;8.87;nan;100378.72;5058178;28;20502;-74
2023/12/12 10:27:03;;;;;;;24.42;14.98;;;;;;;8.85;nan;100359.72;5058025;28;20060;-73
2023/12/12 10:29:30;;;;;;;26.63;14.90;;;;;;;8.99;nan;100382.25;5060914;28;20136;-74
2023/12/12 10:31:58;;;;;;;26.17;14.00;;;;;;;9.10;nan;100384.19;5039091;28;20044;-73
2023/12/12 10:34:27;;;;;;;26.63;14.13;;;;;;;9.03;nan;100367.66;5057019;28;20032;-74
2023/12/12 10:36:53;;;;;;;27.33;13.68;;;;;;;9.22;nan;100380.81;5059133;28;20593;-73
2023/12/12 10:39:19;;;;;;;28.67;15.00;;;;;;;9.27;nan;100379.19;5048062;28;20051;-74
2023/12/12 10:41:57;;;;;;;26.52;14.23;;;;;;;9.39;nan;100381.09;5056800;28;20029;-74
2023/12/12 10:44:33;;;;;;;27.03;14.47;;;;;;;9.38;nan;100367.13;5047740;28;20024;-74
2023/12/12 10:47:02;;;;;;;25.23;13.88;;;;;;;9.56;nan;100375.03;5049353;28;20269;-73
2023/12/12 10:49:31;;;;;;;22.58;12.20;;;;;;;9.61;nan;100371.75;5059194;28;20108;-73
2023/12/12 10:51:58;;;;;;;24.83;12.50;;;;;;;9.71;nan;100376.50;5062278;28;20040;-74
2023/12/12 10:54:25;;;;;;;26.67;12.57;;;;;;;9.68;nan;100361.19;5058089;28;20031;-73
2023/12/12 10:56:51;;;;;;;24.52;12.95;;;;;;;9.82;nan;100367.88;5060443;28;20020;-74
2023/12/12 10:59:19;;;;;;;26.55;13.82;;;;;;;9.88;nan;100376.72;5064496;28;20052;-74
2023/12/12 11:01:47;;;;;;;21.40;12.63;;;;;;;9.95;nan;100375.59;5059204;28;20029;-74
2023/12/12 11:04:17;;;;;;;21.10;12.32;;;;;;;10.02;nan;100368.44;5060273;28;20013;-73
2023/12/12 11:06:46;;;;;;;20.27;12.35;;;;;;;10.14;nan;100378.22;5056913;28;20036;-75
2023/12/12 11:09:13;;;;;;;20.27;12.05;;;;;;;10.17;nan;100381.19;5056830;28;20962;-74
2023/12/12 11:11:46;;;;;;;20.60;11.85;;;;;;;10.12;nan;100360.00;5060554;28;20101;-74
2023/12/12 11:14:12;;;;;;;21.40;11.55;;;;;;;10.18;nan;100361.75;5049340;28;20470;-75
2023/12/12 11:16:38;;;;;;;23.60;12.60;;;;;;;10.25;nan;100351.16;5057509;28;20531;-75
2023/12/12 11:19:03;;;;;;;24.92;12.88;;;;;;;10.38;nan;100353.63;5061079;28;20017;-74
2023/12/12 11:21:46;;;;;;;32.38;18.77;;;;;;;10.21;nan;100316.56;5057855;28;20676;-77
2023/12/12 11:24:16;;;;;;;22.30;12.93;;;;;;;10.54;nan;100352.19;5059560;28;20029;-74
2023/12/12 11:26:44;;;;;;;25.23;13.27;;;;;;;10.61;nan;100349.44;5058694;28;20028;-75
2023/12/12 11:29:15;;;;;;;22.02;11.68;;;;;;;10.70;nan;100349.91;5040936;28;20017;-73
2023/12/12 11:32:03;;;;;;;23.05;12.45;;;;;;;10.75;nan;100356.13;5059065;28;20024;-73